createdAt,value
2023-05-13T00:00:41.478Z,1.18
2023-05-13T00:01:41.492Z,1.11
2023-05-13T00:02:41.627Z,1.25
2023-05-13T00:03:41.642Z,0.94
2023-05-13T00:04:41.542Z,1.41
2023-05-13T00:05:41.615Z,1.11
2023-05-13T00:06:41.664Z,1.36
2023-05-13T00:07:41.631Z,1.25
2023-05-13T00:08:41.618Z,0.92
2023-05-13T00:09:41.628Z,0.93
2023-05-13T00:10:41.646Z,1.18
2023-05-13T00:11:41.695Z,1.18
2023-05-13T00:12:41.672Z,1.11
2023-05-13T00:13:41.686Z,1.12
2023-05-13T00:14:41.701Z,1.17
2023-05-13T00:15:41.733Z,1.16
2023-05-13T00:16:41.992Z,1.14
2023-05-13T00:17:41.782Z,1.29
2023-05-13T00:18:41.893Z,1.35
2023-05-13T00:19:41.787Z,1.24
2023-05-13T00:20:41.814Z,1.22
2023-05-13T00:21:41.844Z,1.40
2023-05-13T00:22:41.887Z,1.21
2023-05-13T00:23:41.927Z,1.19
2023-05-13T00:24:41.987Z,0.97
2023-05-13T00:25:41.999Z,1.12
2023-05-13T00:26:42.030Z,0.99
2023-05-13T00:27:42.101Z,1.57
2023-05-13T00:28:42.106Z,1.04
2023-05-13T00:29:42.146Z,1.09
2023-05-13T00:30:42.196Z,1.53
2023-05-13T00:31:42.312Z,1.14
2023-05-13T00:32:42.292Z,1.11
2023-05-13T00:33:42.301Z,1.10
2023-05-13T00:34:42.340Z,1.13
2023-05-13T00:35:42.391Z,0.91
2023-05-13T00:36:42.425Z,1.22
2023-05-13T00:37:42.461Z,1.12
2023-05-13T00:38:42.499Z,1.13
2023-05-13T00:39:42.529Z,0.88
2023-05-13T00:40:42.572Z,1.21
2023-05-13T00:41:42.635Z,0.77
2023-05-13T00:42:42.653Z,1.11
2023-05-13T00:43:42.718Z,1.10
2023-05-13T00:44:42.729Z,1.00
2023-05-13T00:45:42.837Z,1.11
2023-05-13T00:46:42.799Z,1.22
2023-05-13T00:47:42.880Z,1.09
2023-05-13T00:48:42.882Z,1.19
2023-05-13T00:49:42.923Z,1.07
2023-05-13T00:50:42.954Z,0.96
2023-05-13T00:51:42.990Z,0.89
2023-05-13T00:52:43.021Z,1.22
2023-05-13T00:53:43.058Z,1.22
2023-05-13T00:54:43.096Z,1.08
2023-05-13T00:55:43.134Z,1.08
2023-05-13T00:56:43.181Z,0.93
2023-05-13T00:57:43.205Z,0.91
2023-05-13T00:58:43.232Z,0.86
2023-05-13T00:59:43.300Z,0.98
2023-05-13T01:00:43.312Z,0.87
2023-05-13T01:01:43.444Z,1.52
2023-05-13T01:02:43.521Z,1.61
2023-05-13T01:03:43.420Z,0.82
2023-05-13T01:04:43.459Z,0.93
2023-05-13T01:05:43.493Z,0.89
2023-05-13T01:06:43.524Z,1.16
2023-05-13T01:07:43.576Z,1.06
2023-05-13T01:08:43.595Z,1.09
2023-05-13T01:09:43.634Z,1.29
2023-05-13T01:10:43.668Z,0.86
2023-05-13T01:11:43.720Z,1.24
2023-05-13T01:12:43.736Z,1.46
2023-05-13T01:13:43.770Z,0.91
2023-05-13T01:14:43.797Z,1.05
2023-05-13T01:15:43.928Z,1.40
2023-05-13T01:16:43.937Z,0.98
2023-05-13T01:17:43.956Z,1.09
2023-05-13T01:18:43.981Z,0.87
2023-05-13T01:19:44.000Z,1.09
2023-05-13T01:20:43.994Z,1.03
2023-05-13T01:21:44.017Z,0.96
2023-05-13T01:22:44.058Z,1.05
2023-05-13T01:23:44.076Z,1.01
2023-05-13T01:24:44.195Z,1.19
2023-05-13T01:25:44.133Z,1.45
2023-05-13T01:26:44.162Z,1.06
2023-05-13T01:27:44.193Z,0.97
2023-05-13T01:28:44.212Z,1.21
2023-05-13T01:29:44.253Z,1.00
2023-05-13T01:30:44.270Z,1.30
2023-05-13T01:31:44.389Z,1.17
2023-05-13T01:32:44.381Z,1.34
2023-05-13T01:33:44.378Z,0.86
2023-05-13T01:34:44.387Z,1.14
2023-05-13T01:35:44.422Z,1.25
2023-05-13T01:36:44.452Z,1.38
2023-05-13T01:37:44.474Z,1.00
2023-05-13T01:38:44.506Z,1.01
2023-05-13T01:39:44.533Z,1.22
2023-05-13T01:40:44.566Z,1.18
2023-05-13T01:41:44.591Z,1.00
2023-05-13T01:42:44.627Z,0.90
2023-05-13T01:43:44.673Z,1.31
2023-05-13T01:44:44.699Z,0.96
2023-05-13T01:45:44.738Z,0.96
2023-05-13T01:46:44.816Z,1.08
2023-05-13T01:47:44.884Z,1.00
2023-05-13T01:48:44.844Z,0.90
2023-05-13T01:49:44.878Z,0.99
2023-05-13T01:50:44.927Z,0.99
2023-05-13T01:51:44.949Z,1.43
2023-05-13T01:52:44.995Z,0.94
2023-05-13T01:53:45.071Z,0.73
2023-05-13T01:54:45.053Z,1.15
2023-05-13T01:55:45.110Z,1.27
2023-05-13T01:56:45.129Z,1.39
2023-05-13T01:57:45.164Z,0.92
2023-05-13T01:58:45.205Z,0.93
2023-05-13T01:59:45.235Z,1.02
2023-05-13T02:00:45.271Z,1.10
2023-05-13T02:01:45.371Z,1.56
2023-05-13T02:02:45.421Z,1.19
2023-05-13T02:03:45.426Z,1.01
2023-05-13T02:04:45.420Z,1.01
2023-05-13T02:05:45.463Z,0.98
2023-05-13T02:06:45.492Z,1.28
2023-05-13T02:07:45.553Z,1.10
2023-05-13T02:08:45.566Z,0.83
2023-05-13T02:09:45.609Z,0.98
2023-05-13T02:10:45.641Z,1.19
2023-05-13T02:11:45.680Z,0.87
2023-05-13T02:12:45.714Z,0.95
2023-05-13T02:13:45.745Z,0.91
2023-05-13T02:14:45.783Z,0.88
2023-05-13T02:15:45.809Z,1.34
2023-05-13T02:16:45.876Z,1.18
2023-05-13T02:17:45.934Z,1.28
2023-05-13T02:18:45.939Z,1.04
2023-05-13T02:19:45.988Z,1.05
2023-05-13T02:20:45.992Z,1.34
2023-05-13T02:21:46.038Z,1.04
2023-05-13T02:22:46.064Z,1.17
2023-05-13T02:23:46.104Z,1.22
2023-05-13T02:24:46.143Z,0.81
2023-05-13T02:25:46.176Z,1.17
2023-05-13T02:26:46.219Z,1.09
2023-05-13T02:27:46.250Z,0.84
2023-05-13T02:28:46.296Z,0.79
2023-05-13T02:29:46.333Z,1.07
2023-05-13T02:30:46.358Z,0.94
2023-05-13T02:31:46.465Z,0.81
2023-05-13T02:32:46.528Z,1.08
2023-05-13T02:33:46.554Z,0.99
2023-05-13T02:34:46.525Z,1.01
2023-05-13T02:35:46.593Z,1.29
2023-05-13T02:36:46.605Z,0.99
2023-05-13T02:37:46.647Z,1.18
2023-05-13T02:38:46.719Z,1.10
2023-05-13T02:39:46.742Z,0.99
2023-05-13T02:40:46.774Z,1.13
2023-05-13T02:41:46.821Z,0.91
2023-05-13T02:42:46.864Z,0.69
2023-05-13T02:43:46.893Z,1.06
2023-05-13T02:44:46.936Z,1.13
2023-05-13T02:45:47.005Z,1.07
2023-05-13T02:46:47.017Z,0.85
2023-05-13T02:47:47.083Z,1.01
2023-05-13T02:48:47.098Z,0.89
2023-05-13T02:49:47.139Z,0.94
2023-05-13T02:50:47.189Z,1.05
2023-05-13T02:51:47.246Z,0.73
2023-05-13T02:52:47.260Z,1.12
2023-05-13T02:53:47.301Z,1.09
2023-05-13T02:54:47.352Z,1.09
2023-05-13T02:55:47.381Z,1.01
2023-05-13T02:56:47.400Z,0.93
2023-05-13T02:57:47.446Z,1.04
2023-05-13T02:58:47.479Z,1.00
2023-05-13T02:59:47.518Z,0.99
2023-05-13T03:00:47.594Z,1.03
2023-05-13T03:01:47.620Z,0.91
2023-05-13T03:02:47.748Z,0.90
2023-05-13T03:03:47.849Z,1.08
2023-05-13T03:04:47.720Z,1.03
2023-05-13T03:05:47.775Z,1.11
2023-05-13T03:06:47.800Z,0.98
2023-05-13T03:07:48.324Z,1.19
2023-05-13T03:08:47.898Z,0.66
2023-05-13T03:09:47.910Z,1.09
2023-05-13T03:10:47.945Z,1.40
2023-05-13T03:11:47.999Z,0.83
2023-05-13T03:12:48.023Z,0.81
2023-05-13T03:13:48.065Z,0.75
2023-05-13T03:14:48.099Z,0.85
2023-05-13T03:15:48.154Z,1.03
2023-05-13T03:16:48.185Z,0.91
2023-05-13T03:17:48.246Z,0.82
2023-05-13T03:18:48.286Z,1.06
2023-05-13T03:19:48.281Z,1.35
2023-05-13T03:20:48.317Z,1.03
2023-05-13T03:21:48.354Z,0.94
2023-05-13T03:22:48.394Z,0.82
2023-05-13T03:23:48.449Z,0.96
2023-05-13T03:24:48.462Z,0.98
2023-05-13T03:25:48.500Z,0.92
2023-05-13T03:26:48.537Z,1.07
2023-05-13T03:27:48.577Z,0.95
2023-05-13T03:28:48.645Z,0.76
2023-05-13T03:29:48.672Z,0.92
2023-05-13T03:30:48.715Z,1.19
2023-05-13T03:31:48.764Z,1.00
2023-05-13T03:32:48.834Z,0.94
2023-05-13T03:33:48.808Z,0.86
2023-05-13T03:34:48.884Z,0.99
2023-05-13T03:35:48.911Z,1.01
2023-05-13T03:36:49.020Z,0.92
2023-05-13T03:37:48.941Z,1.02
2023-05-13T03:38:48.971Z,1.08
2023-05-13T03:39:49.042Z,1.27
2023-05-13T03:40:49.063Z,1.40
2023-05-13T03:41:49.074Z,0.90
2023-05-13T03:42:49.114Z,1.26
2023-05-13T03:43:49.168Z,0.62
2023-05-13T03:44:49.185Z,1.27
2023-05-13T03:45:49.217Z,1.10
2023-05-13T03:46:49.270Z,0.95
2023-05-13T03:47:49.334Z,0.86
2023-05-13T03:48:49.323Z,1.23
2023-05-13T03:49:49.357Z,1.03
2023-05-13T03:50:49.390Z,0.97
2023-05-13T03:51:49.425Z,0.89
2023-05-13T03:52:49.497Z,1.09
2023-05-13T03:53:49.506Z,0.99
2023-05-13T03:54:49.549Z,0.90
2023-05-13T03:55:49.593Z,1.12
2023-05-13T03:56:49.620Z,1.05
2023-05-13T03:57:49.683Z,0.89
2023-05-13T03:58:49.701Z,0.91
2023-05-13T03:59:49.739Z,1.03
2023-05-13T04:00:49.809Z,0.80
2023-05-13T04:01:49.862Z,1.00
2023-05-13T04:02:50.174Z,0.98
2023-05-13T04:03:49.923Z,1.28
2023-05-13T04:04:50.011Z,0.79
2023-05-13T04:05:49.974Z,1.07
2023-05-13T04:06:50.012Z,1.22
2023-05-13T04:07:50.069Z,0.91
2023-05-13T04:08:50.085Z,1.21
2023-05-13T04:09:50.114Z,0.88
2023-05-13T04:10:50.155Z,1.07
2023-05-13T04:11:50.221Z,1.49
2023-05-13T04:12:50.230Z,1.15
2023-05-13T04:13:50.272Z,0.84
2023-05-13T04:14:50.305Z,0.95
2023-05-13T04:15:50.346Z,0.95
2023-05-13T04:16:50.457Z,0.96
2023-05-13T04:17:50.455Z,1.05
2023-05-13T04:18:50.544Z,1.00
2023-05-13T04:19:50.505Z,1.13
2023-05-13T04:20:50.555Z,1.04
2023-05-13T04:21:50.575Z,1.29
2023-05-13T04:22:50.623Z,0.76
2023-05-13T04:23:50.677Z,0.81
2023-05-13T04:24:50.710Z,1.08
2023-05-13T04:25:50.757Z,1.36
2023-05-13T04:26:50.787Z,1.05
2023-05-13T04:27:50.849Z,0.99
2023-05-13T04:28:50.868Z,0.93
2023-05-13T04:29:50.933Z,1.18
2023-05-13T04:30:50.938Z,1.22
2023-05-13T04:31:51.018Z,1.33
2023-05-13T04:32:51.055Z,1.17
2023-05-13T04:33:51.073Z,1.01
2023-05-13T04:34:51.104Z,1.13
2023-05-13T04:35:51.146Z,1.05
2023-05-13T04:36:51.176Z,0.92
2023-05-13T04:37:51.220Z,0.85
2023-05-13T04:38:51.258Z,1.03
2023-05-13T04:39:51.309Z,0.93
2023-05-13T04:40:51.343Z,1.12
2023-05-13T04:41:51.377Z,0.66
2023-05-13T04:42:51.414Z,0.99
2023-05-13T04:43:51.476Z,1.05
2023-05-13T04:44:51.497Z,0.89
2023-05-13T04:45:51.579Z,0.92
2023-05-13T04:46:51.572Z,1.06
2023-05-13T04:47:51.643Z,1.00
2023-05-13T04:48:51.619Z,1.06
2023-05-13T04:49:51.658Z,1.20
2023-05-13T04:50:51.774Z,1.29
2023-05-13T04:51:51.811Z,1.11
2023-05-13T04:52:51.850Z,0.95
2023-05-13T04:53:51.891Z,0.70
2023-05-13T04:54:51.932Z,0.95
2023-05-13T04:55:51.977Z,1.04
2023-05-13T04:56:52.018Z,1.10
2023-05-13T04:57:52.060Z,1.00
2023-05-13T04:58:52.100Z,0.82
2023-05-13T04:59:52.173Z,1.20
2023-05-13T05:00:52.180Z,0.87
2023-05-13T05:01:52.269Z,0.83
2023-05-13T05:02:52.286Z,0.84
2023-05-13T05:03:52.357Z,1.02
2023-05-13T05:04:52.359Z,1.08
2023-05-13T05:05:52.443Z,0.89
2023-05-13T05:06:52.461Z,1.06
2023-05-13T05:07:52.498Z,0.77
2023-05-13T05:08:52.536Z,0.78
2023-05-13T05:09:52.584Z,0.91
2023-05-13T05:10:52.638Z,0.94
2023-05-13T05:11:52.696Z,0.94
2023-05-13T05:12:52.714Z,1.16
2023-05-13T05:13:52.760Z,1.15
2023-05-13T05:14:52.799Z,1.35
2023-05-13T05:15:52.872Z,1.50
2023-05-13T05:16:53.760Z,1.06
2023-05-13T05:17:53.043Z,1.16
2023-05-13T05:18:53.099Z,1.24
2023-05-13T05:19:53.004Z,1.46
2023-05-13T05:20:53.048Z,1.59
2023-05-13T05:21:53.097Z,1.42
2023-05-13T05:22:53.124Z,1.12
2023-05-13T05:23:53.174Z,1.21
2023-05-13T05:24:53.221Z,1.25
2023-05-13T05:26:04.125Z,1.22
2023-05-13T05:26:53.286Z,1.10
2023-05-13T05:27:53.299Z,1.07
2023-05-13T05:28:53.322Z,0.92
2023-05-13T05:29:53.347Z,1.48
2023-05-13T05:30:53.372Z,1.43
2023-05-13T05:31:53.518Z,1.07
2023-05-13T05:32:53.527Z,1.31
2023-05-13T05:33:53.435Z,1.38
2023-05-13T05:34:53.453Z,1.07
2023-05-13T05:35:53.471Z,1.30
2023-05-13T05:36:53.497Z,1.08
2023-05-13T05:37:53.508Z,1.11
2023-05-13T05:38:53.541Z,1.38
2023-05-13T05:39:53.556Z,1.11
2023-05-13T05:40:53.599Z,0.86
2023-05-13T05:41:53.607Z,1.11
2023-05-13T05:42:53.618Z,1.44
2023-05-13T05:43:53.648Z,1.00
2023-05-13T05:44:53.672Z,1.33
2023-05-13T05:45:53.774Z,1.26
2023-05-13T05:46:53.711Z,1.06
2023-05-13T05:47:53.813Z,1.25
2023-05-13T05:48:53.734Z,1.12
2023-05-13T05:49:53.765Z,0.92
2023-05-13T05:50:53.773Z,0.87
2023-05-13T05:51:53.805Z,1.08
2023-05-13T05:52:53.811Z,1.12
2023-05-13T05:53:53.827Z,1.49
2023-05-13T05:54:53.853Z,0.94
2023-05-13T05:55:53.935Z,1.13
2023-05-13T05:56:53.884Z,1.15
2023-05-13T05:57:53.899Z,1.09
2023-05-13T05:58:53.920Z,1.09
2023-05-13T05:59:53.936Z,1.41
2023-05-13T06:00:53.951Z,1.04
2023-05-13T06:01:53.984Z,1.16
2023-05-13T06:02:54.055Z,1.52
2023-05-13T06:03:55.151Z,1.00
2023-05-13T06:04:54.027Z,1.35
2023-05-13T06:05:54.057Z,1.14
2023-05-13T06:06:54.134Z,1.00
2023-05-13T06:07:54.112Z,1.19
2023-05-13T06:08:54.106Z,1.11
2023-05-13T06:09:54.157Z,1.42
2023-05-13T06:10:54.229Z,1.34
2023-05-13T06:11:54.294Z,1.46
2023-05-13T06:12:54.365Z,1.26
2023-05-13T06:13:54.437Z,1.27
2023-05-13T06:14:54.524Z,1.27
2023-05-13T06:15:54.620Z,1.93
2023-05-13T06:16:55.796Z,1.68
2023-05-13T06:17:54.738Z,1.58
2023-05-13T06:18:54.838Z,1.51
2023-05-13T06:19:54.880Z,1.52
2023-05-13T06:20:54.915Z,1.43
2023-05-13T06:21:54.982Z,1.50
2023-05-13T06:22:55.049Z,1.37
2023-05-13T06:23:55.109Z,1.32
2023-05-13T06:24:55.185Z,1.58
2023-05-13T06:25:55.255Z,2.15
2023-05-13T06:26:55.318Z,1.79
2023-05-13T06:27:55.382Z,1.63
2023-05-13T06:28:56.255Z,1.48
2023-05-13T06:29:55.498Z,1.72
2023-05-13T06:30:55.591Z,1.73
2023-05-13T06:31:55.641Z,1.64
2023-05-13T06:33:01.664Z,1.73
2023-05-13T06:33:55.729Z,1.79
2023-05-13T06:34:56.115Z,2.01
2023-05-13T06:35:55.791Z,1.80
2023-05-13T06:36:55.780Z,1.43
2023-05-13T06:37:55.800Z,2.16
2023-05-13T06:38:55.832Z,1.71
2023-05-13T06:39:55.843Z,1.74
2023-05-13T06:40:55.932Z,1.91
2023-05-13T06:41:55.882Z,1.80
2023-05-13T06:42:55.898Z,2.21
2023-05-13T06:43:55.930Z,1.86
2023-05-13T06:44:55.939Z,2.00
2023-05-13T06:45:55.969Z,1.67
2023-05-13T06:46:56.014Z,2.06
2023-05-13T06:47:56.027Z,1.86
2023-05-13T06:48:56.023Z,1.96
2023-05-13T06:49:56.037Z,2.35
2023-05-13T06:50:56.052Z,2.24
2023-05-13T06:51:56.094Z,1.56
2023-05-13T06:52:56.090Z,1.89
2023-05-13T06:53:56.109Z,2.00
2023-05-13T06:54:56.760Z,2.36
2023-05-13T06:55:56.144Z,2.20
2023-05-13T06:56:56.181Z,2.07
2023-05-13T06:57:56.199Z,2.08
2023-05-13T06:58:56.252Z,2.23
2023-05-13T06:59:56.313Z,1.77
2023-05-13T07:00:56.432Z,2.44
2023-05-13T07:01:56.443Z,1.95
2023-05-13T07:02:56.605Z,2.99
2023-05-13T07:03:56.626Z,2.49
2023-05-13T07:04:56.636Z,1.82
2023-05-13T07:05:56.690Z,1.74
2023-05-13T07:06:56.756Z,2.59
2023-05-13T07:07:56.846Z,2.16
2023-05-13T07:08:56.890Z,2.15
2023-05-13T07:09:56.954Z,2.31
2023-05-13T07:10:57.003Z,2.36
2023-05-13T07:11:57.061Z,2.10
2023-05-13T07:12:57.165Z,2.28
2023-05-13T07:13:57.187Z,2.78
2023-05-13T07:14:57.253Z,2.31
2023-05-13T07:15:57.347Z,2.14
2023-05-13T07:16:57.414Z,1.98
2023-05-13T07:17:57.519Z,2.47
2023-05-13T07:18:57.594Z,1.88
2023-05-13T07:19:57.579Z,2.56
2023-05-13T07:20:57.616Z,2.28
2023-05-13T07:21:57.679Z,2.39
2023-05-13T07:22:57.740Z,2.56
2023-05-13T07:23:57.883Z,2.42
2023-05-13T07:24:57.864Z,2.47
2023-05-13T07:25:57.919Z,2.21
2023-05-13T07:26:57.983Z,1.95
2023-05-13T07:27:58.082Z,2.32
2023-05-13T07:28:58.095Z,2.27
2023-05-13T07:29:58.165Z,2.38
2023-05-13T07:30:58.283Z,2.03
2023-05-13T07:31:58.292Z,2.28
2023-05-13T07:32:58.468Z,2.49
2023-05-13T07:33:58.408Z,2.39
2023-05-13T07:34:58.463Z,2.36
2023-05-13T07:35:58.541Z,2.31
2023-05-13T07:36:58.580Z,2.25
2023-05-13T07:37:58.630Z,2.76
2023-05-13T07:38:59.255Z,2.40
2023-05-13T07:39:58.768Z,2.81
2023-05-13T07:40:58.815Z,2.55
2023-05-13T07:41:58.847Z,2.27
2023-05-13T07:42:58.909Z,2.39
2023-05-13T07:43:58.995Z,2.26
2023-05-13T07:44:59.018Z,2.37
2023-05-13T07:45:59.073Z,2.51
2023-05-13T07:46:59.184Z,2.36
2023-05-13T07:47:59.252Z,2.19
2023-05-13T07:48:59.261Z,2.34
2023-05-13T07:49:59.300Z,2.34
2023-05-13T07:50:59.339Z,2.21
2023-05-13T07:51:59.400Z,2.18
2023-05-13T07:52:59.442Z,2.43
2023-05-13T07:53:59.493Z,2.26
2023-05-13T07:54:59.545Z,2.50
2023-05-13T07:55:59.621Z,1.87
2023-05-13T07:56:59.640Z,2.04
2023-05-13T07:57:59.703Z,2.25
2023-05-13T07:58:59.741Z,2.23
2023-05-13T07:59:59.796Z,2.63
2023-05-13T08:00:59.871Z,2.16
2023-05-13T08:01:58.893Z,2.48
2023-05-13T08:03:00.042Z,2.59
2023-05-13T08:04:00.164Z,2.07
2023-05-13T08:05:00.123Z,2.40
2023-05-13T08:06:00.142Z,2.55
2023-05-13T08:07:00.159Z,2.47
2023-05-13T08:08:00.245Z,2.64
2023-05-13T08:09:00.295Z,2.32
2023-05-13T08:10:00.336Z,2.39
2023-05-13T08:11:00.410Z,2.40
2023-05-13T08:12:00.512Z,2.29
2023-05-13T08:13:00.527Z,2.43
2023-05-13T08:14:00.587Z,2.18
2023-05-13T08:15:00.630Z,2.09
2023-05-13T08:16:00.707Z,2.29
2023-05-13T08:17:00.750Z,2.35
2023-05-13T08:18:00.883Z,2.40
2023-05-13T08:19:00.885Z,2.23
2023-05-13T08:20:00.910Z,2.63
2023-05-13T08:21:00.979Z,2.35
2023-05-13T08:22:01.023Z,2.35
2023-05-13T08:23:01.072Z,2.29
2023-05-13T08:24:01.129Z,2.23
2023-05-13T08:25:01.319Z,2.64
2023-05-13T08:26:01.249Z,1.81
2023-05-13T08:27:01.309Z,2.43
2023-05-13T08:28:01.401Z,2.15
2023-05-13T08:29:01.429Z,2.12
2023-05-13T08:30:01.489Z,2.35
2023-05-13T08:31:01.544Z,2.30
2023-05-13T08:32:01.725Z,2.73
2023-05-13T08:33:01.669Z,2.02
2023-05-13T08:34:01.710Z,2.25
2023-05-13T08:35:01.771Z,2.17
2023-05-13T08:36:01.817Z,2.29
2023-05-13T08:37:01.882Z,1.77
2023-05-13T08:38:01.934Z,2.07
2023-05-13T08:39:01.982Z,2.18
2023-05-13T08:40:02.037Z,2.12
2023-05-13T08:41:02.085Z,2.31
2023-05-13T08:42:02.140Z,1.73
2023-05-13T08:43:02.193Z,1.74
2023-05-13T08:44:02.274Z,1.78
2023-05-13T08:45:02.337Z,2.17
2023-05-13T08:46:02.373Z,2.11
2023-05-13T08:47:02.424Z,1.91
2023-05-13T08:48:02.543Z,1.83
2023-05-13T08:49:02.528Z,1.88
2023-05-13T08:50:02.586Z,1.69
2023-05-13T08:51:02.643Z,1.93
2023-05-13T08:52:02.696Z,2.32
2023-05-13T08:53:02.755Z,1.94
2023-05-13T08:54:02.797Z,1.62
2023-05-13T08:55:02.853Z,1.98
2023-05-13T08:56:02.897Z,1.73
2023-05-13T08:57:02.941Z,2.02
2023-05-13T08:58:03.012Z,1.93
2023-05-13T08:59:03.054Z,1.65
2023-05-13T09:00:03.133Z,1.50
2023-05-13T09:01:03.184Z,1.66
2023-05-13T09:02:03.200Z,2.15
2023-05-13T09:03:03.285Z,1.79
2023-05-13T09:04:03.328Z,1.58
2023-05-13T09:05:03.434Z,1.62
2023-05-13T09:06:03.430Z,1.50
2023-05-13T09:07:03.474Z,1.69
2023-05-13T09:08:03.531Z,1.79
2023-05-13T09:09:03.586Z,1.86
2023-05-13T09:10:03.633Z,1.56
2023-05-13T09:11:03.680Z,1.87
2023-05-13T09:12:03.728Z,1.91
2023-05-13T09:13:03.804Z,1.72
2023-05-13T09:14:03.843Z,1.92
2023-05-13T09:15:03.911Z,1.62
2023-05-13T09:16:04.020Z,1.50
2023-05-13T09:17:04.037Z,1.78
2023-05-13T09:18:04.166Z,1.54
2023-05-13T09:19:04.264Z,1.41
2023-05-13T09:20:04.216Z,1.41
2023-05-13T09:21:04.224Z,1.59
2023-05-13T09:22:04.280Z,1.66
2023-05-13T09:23:04.348Z,1.58
2023-05-13T09:24:04.391Z,1.50
2023-05-13T09:25:04.446Z,1.46
2023-05-13T09:26:04.489Z,1.49
2023-05-13T09:27:04.539Z,1.36
2023-05-13T09:28:04.595Z,1.48
2023-05-13T09:29:04.668Z,1.69
2023-05-13T09:30:04.710Z,1.47
2023-05-13T09:31:04.807Z,1.64
2023-05-13T09:32:04.835Z,1.43
2023-05-13T09:33:04.915Z,1.32
2023-05-13T09:34:04.921Z,1.29
2023-05-13T09:35:04.965Z,1.52
2023-05-13T09:36:05.021Z,1.27
2023-05-13T09:37:05.094Z,1.41
2023-05-13T09:38:05.150Z,1.23
2023-05-13T09:39:05.178Z,1.50
2023-05-13T09:40:05.298Z,1.20
2023-05-13T09:41:05.274Z,1.27
2023-05-13T09:42:05.684Z,1.58
2023-05-13T09:43:05.373Z,1.47
2023-05-13T09:44:05.420Z,1.56
2023-05-13T09:45:05.479Z,1.27
2023-05-13T09:46:05.510Z,1.31
2023-05-13T09:47:05.580Z,1.39
2023-05-13T09:48:05.707Z,1.08
2023-05-13T09:49:05.661Z,1.33
2023-05-13T09:50:05.732Z,1.24
2023-05-13T09:51:05.762Z,1.20
2023-05-13T09:52:05.810Z,1.30
2023-05-13T09:53:05.859Z,1.37
2023-05-13T09:54:05.897Z,1.31
2023-05-13T09:55:05.954Z,1.45
2023-05-13T09:56:05.994Z,1.09
2023-05-13T09:57:06.085Z,0.98
2023-05-13T09:58:06.085Z,1.27
2023-05-13T09:59:06.150Z,0.98
2023-05-13T10:00:06.215Z,1.36
2023-05-13T10:01:06.231Z,1.01
2023-05-13T10:02:06.253Z,1.18
2023-05-13T10:03:06.390Z,1.00
2023-05-13T10:04:06.463Z,1.31
2023-05-13T10:05:06.392Z,1.23
2023-05-13T10:06:06.417Z,1.19
2023-05-13T10:07:06.478Z,1.03
2023-05-13T10:08:06.508Z,1.28
2023-05-13T10:09:06.546Z,0.94
2023-05-13T10:10:06.589Z,0.81
2023-05-13T10:11:06.632Z,1.03
2023-05-13T10:12:06.724Z,0.86
2023-05-13T10:13:06.715Z,1.22
2023-05-13T10:14:06.739Z,0.99
2023-05-13T10:15:06.784Z,1.15
2023-05-13T10:16:06.907Z,1.08
2023-05-13T10:17:07.024Z,1.19
2023-05-13T10:18:07.682Z,1.23
2023-05-13T10:19:07.003Z,1.06
2023-05-13T10:20:07.002Z,1.09
2023-05-13T10:21:07.010Z,0.99
2023-05-13T10:22:07.040Z,1.28
2023-05-13T10:23:07.066Z,1.30
2023-05-13T10:24:07.127Z,1.10
2023-05-13T10:25:07.135Z,1.19
2023-05-13T10:26:07.170Z,0.90
2023-05-13T10:27:07.192Z,1.30
2023-05-13T10:28:07.228Z,0.97
2023-05-13T10:29:07.262Z,1.22
2023-05-13T10:30:07.294Z,1.15
2023-05-13T10:31:07.325Z,0.95
2023-05-13T10:32:07.388Z,1.23
2023-05-13T10:33:07.476Z,1.34
2023-05-13T10:34:07.422Z,1.33
2023-05-13T10:35:07.475Z,1.10
2023-05-13T10:36:07.528Z,1.20
2023-05-13T10:37:07.527Z,0.79
2023-05-13T10:38:07.559Z,1.10
2023-05-13T10:39:07.613Z,1.38
2023-05-13T10:40:07.642Z,1.04
2023-05-13T10:41:07.679Z,0.90
2023-05-13T10:42:07.719Z,1.10
2023-05-13T10:43:07.749Z,1.30
2023-05-13T10:44:09.814Z,0.98
2023-05-13T10:45:07.806Z,1.21
2023-05-13T10:46:07.949Z,1.18
2023-05-13T10:47:07.884Z,0.84
2023-05-13T10:48:08.088Z,1.06
2023-05-13T10:49:07.869Z,1.09
2023-05-13T10:50:07.958Z,0.90
2023-05-13T10:51:07.908Z,0.84
2023-05-13T10:52:07.970Z,1.28
2023-05-13T10:53:07.946Z,1.22
2023-05-13T10:54:07.963Z,0.92
2023-05-13T10:55:07.991Z,1.41
2023-05-13T10:56:08.028Z,1.34
2023-05-13T10:57:08.033Z,0.86
2023-05-13T10:58:08.049Z,0.83
2023-05-13T10:59:08.066Z,1.18
2023-05-13T11:00:08.090Z,1.14
2023-05-13T11:01:08.168Z,0.85
2023-05-13T11:02:08.169Z,0.71
2023-05-13T11:03:08.218Z,1.02
2023-05-13T11:04:08.400Z,1.12
2023-05-13T11:05:08.172Z,1.36
2023-05-13T11:06:08.180Z,0.89
2023-05-13T11:07:08.201Z,0.98
2023-05-13T11:08:08.261Z,1.03
2023-05-13T11:09:08.262Z,0.81
2023-05-13T11:10:08.257Z,1.09
2023-05-13T11:11:08.277Z,0.98
2023-05-13T11:12:08.304Z,0.75
2023-05-13T11:13:08.329Z,0.88
2023-05-13T11:14:08.854Z,0.88
2023-05-13T11:15:08.352Z,0.95
2023-05-13T11:16:08.376Z,0.71
2023-05-13T11:17:08.388Z,0.57
2023-05-13T11:18:08.574Z,0.86
2023-05-13T11:19:08.665Z,0.76
2023-05-13T11:20:08.449Z,0.71
2023-05-13T11:21:08.498Z,0.78
2023-05-13T11:22:08.514Z,0.80
2023-05-13T11:23:08.533Z,0.83
2023-05-13T11:24:08.584Z,0.67
2023-05-13T11:25:08.578Z,0.83
2023-05-13T11:26:11.274Z,0.94
2023-05-13T11:27:08.634Z,1.13
2023-05-13T11:28:08.655Z,0.69
2023-05-13T11:29:09.358Z,0.59
2023-05-13T11:30:08.685Z,0.81
2023-05-13T11:31:08.713Z,0.70
2023-05-13T11:32:08.725Z,0.95
2023-05-13T11:33:08.781Z,0.82
2023-05-13T11:34:08.769Z,1.03
2023-05-13T11:35:08.791Z,0.84
2023-05-13T11:36:08.819Z,0.99
2023-05-13T11:37:08.867Z,0.98
2023-05-13T11:38:08.852Z,0.95
2023-05-13T11:39:08.867Z,1.12
2023-05-13T11:40:08.973Z,0.89
2023-05-13T11:41:08.914Z,0.84
2023-05-13T11:42:08.954Z,0.96
2023-05-13T11:43:08.949Z,1.28
2023-05-13T11:44:08.995Z,0.98
2023-05-13T11:45:09.014Z,1.01
2023-05-13T11:46:09.043Z,1.03
2023-05-13T11:47:09.037Z,0.83
2023-05-13T11:48:09.085Z,0.81
2023-05-13T11:49:09.088Z,1.08
2023-05-13T11:50:09.083Z,0.96
2023-05-13T11:51:09.100Z,1.27
2023-05-13T11:52:09.106Z,0.84
2023-05-13T11:53:09.130Z,0.87
2023-05-13T11:54:09.152Z,1.33
2023-05-13T11:55:09.168Z,0.97
2023-05-13T11:56:09.219Z,0.87
2023-05-13T11:57:09.208Z,0.95
2023-05-13T11:58:09.218Z,1.13
2023-05-13T11:59:09.236Z,1.05
2023-05-13T12:00:09.253Z,1.05
2023-05-13T12:01:09.274Z,0.94
2023-05-13T12:02:09.352Z,1.07
2023-05-13T12:03:09.410Z,1.04
2023-05-13T12:04:09.334Z,0.96
2023-05-13T12:05:09.428Z,1.46
2023-05-13T12:06:09.359Z,1.18
2023-05-13T12:07:09.378Z,0.81
2023-05-13T12:08:09.402Z,1.13
2023-05-13T12:09:09.771Z,1.00
2023-05-13T12:10:09.431Z,1.19
2023-05-13T12:11:09.473Z,1.00
2023-05-13T12:12:09.500Z,1.05
2023-05-13T12:13:09.476Z,0.97
2023-05-13T12:14:09.508Z,1.00
2023-05-13T12:15:09.521Z,1.37
2023-05-13T12:16:09.565Z,1.12
2023-05-13T12:17:09.553Z,0.94
2023-05-13T12:18:09.653Z,0.84
2023-05-13T12:19:09.685Z,1.14
2023-05-13T12:20:09.617Z,1.31
2023-05-13T12:21:09.639Z,1.02
2023-05-13T12:22:09.657Z,1.11
2023-05-13T12:23:09.676Z,1.06
2023-05-13T12:24:09.692Z,1.05
2023-05-13T12:25:09.718Z,0.75
2023-05-13T12:26:09.742Z,0.88
2023-05-13T12:27:11.412Z,1.32
2023-05-13T12:28:09.779Z,1.31
2023-05-13T12:29:09.771Z,1.08
2023-05-13T12:30:10.417Z,1.27
2023-05-13T12:31:09.838Z,1.09
2023-05-13T12:32:09.822Z,1.06
2023-05-13T12:33:09.896Z,1.11
2023-05-13T12:34:09.857Z,0.98
2023-05-13T12:35:09.878Z,1.21
2023-05-13T12:36:09.897Z,1.04
2023-05-13T12:37:09.973Z,1.03
2023-05-13T12:38:09.912Z,0.83
2023-05-13T12:39:09.933Z,1.24
2023-05-13T12:40:09.965Z,0.89
2023-05-13T12:41:09.962Z,1.13
2023-05-13T12:42:09.969Z,0.95
2023-05-13T12:43:09.987Z,1.06
2023-05-13T12:44:10.027Z,1.05
2023-05-13T12:45:10.026Z,1.09
2023-05-13T12:46:10.082Z,1.07
2023-05-13T12:47:10.134Z,0.80
2023-05-13T12:48:10.132Z,1.01
2023-05-13T12:49:10.086Z,1.00
2023-05-13T12:50:10.129Z,0.98
2023-05-13T12:51:10.124Z,0.97
2023-05-13T12:52:10.130Z,1.16
2023-05-13T12:53:10.143Z,1.06
2023-05-13T12:54:10.165Z,0.84
2023-05-13T12:55:10.199Z,1.18
2023-05-13T12:56:10.193Z,0.88
2023-05-13T12:57:10.889Z,0.65
2023-05-13T12:58:10.221Z,1.07
2023-05-13T12:59:10.229Z,0.74
2023-05-13T13:00:10.268Z,1.05
2023-05-13T13:01:10.297Z,0.94
2023-05-13T13:02:10.270Z,0.75
2023-05-13T13:03:10.411Z,0.76
2023-05-13T13:04:10.493Z,1.18
2023-05-13T13:05:10.370Z,1.02
2023-05-13T13:06:10.340Z,1.38
2023-05-13T13:07:10.355Z,0.85
2023-05-13T13:08:10.380Z,0.93
2023-05-13T13:09:10.400Z,0.90
2023-05-13T13:10:10.415Z,0.74
2023-05-13T13:11:10.438Z,1.07
2023-05-13T13:12:10.465Z,1.09
2023-05-13T13:13:10.462Z,0.98
2023-05-13T13:14:10.481Z,0.89
2023-05-13T13:15:10.511Z,0.82
2023-05-13T13:16:10.581Z,1.00
2023-05-13T13:17:10.516Z,0.84
2023-05-13T13:18:10.605Z,0.92
2023-05-13T13:19:10.591Z,0.95